CYBN weather

CFB Borden
Borden, Ontario, Canada

Public forecast

Using degrees Celsius for public forecast. Weather courtesy of forecast.io.

Current aviation weather report (METAR) for CFB Borden

Retrieved 2019/10/22 11:00 UTC (3 minutes ago):

CYBN 221100Z AUTO 15010KT 7SM OVC006 13/13 A2968 RMK SLP053

Aviation forecast (TAF) for CFB Borden

Retrieved 2019/10/22 10:18 UTC (45 minutes ago):

TAF TAF CYBN 221015Z 2210/2222 16010KT P6SM -RA FEW007 OVC030 TEMPO 2210/2215 4SM -RA BR OVC007 BECMG 2210/2212 17010G20KT FM221500 20012G22KT P6SM BKN015 OVC040 TEMPO 2215/2218 P6SM -SHRA FM221800 19010G20KT P6SM BKN040 TEMPO 2218/2220 P6SM -SHRA RMK FCST BASED ON AUTO OBS NXT FCST BY 221200Z